Time;durP1;ratioP1;P1;durP2;ratioP2;P2;SDS_P1;SDS_P2;PMS_P1;PMS_P2;Temp;Humidity;BMP_temperature;BMP_pressure;BME280_temperature;BME280_humidity;BME280_pressure;Samples;Min_cycle;Max_cycle;Signal;HPM_P1;HPM_P2
2023/07/03 00:01:41;;;;;;;22.25;17.48;;;;;;;20.67;65.99;94883.69;5136014;27;20418;-80
2023/07/03 00:04:10;;;;;;;24.00;17.95;;;;;;;20.38;66.31;94844.41;5132366;27;20023;-80
2023/07/03 00:06:37;;;;;;;26.48;18.90;;;;;;;20.35;66.55;94856.66;5145716;27;20034;-80
2023/07/03 00:09:03;;;;;;;25.30;17.42;;;;;;;20.45;66.62;94868.84;5132416;27;20149;-81
2023/07/03 00:11:28;;;;;;;22.27;18.05;;;;;;;20.35;66.91;94867.44;5153171;27;20034;-80
2023/07/03 00:13:53;;;;;;;25.90;18.48;;;;;;;20.34;66.67;94848.91;5135633;27;20031;-80
2023/07/03 00:16:19;;;;;;;23.88;18.35;;;;;;;20.56;66.47;94861.84;5134907;27;20026;-80
2023/07/03 00:18:44;;;;;;;25.45;18.58;;;;;;;20.40;66.13;94834.06;5154299;27;20052;-80
2023/07/03 00:21:10;;;;;;;27.88;18.17;;;;;;;20.77;65.58;94867.00;5118565;27;20042;-80
2023/07/03 00:23:36;;;;;;;23.25;18.17;;;;;;;20.49;66.46;94866.25;5124905;27;20038;-80
2023/07/03 00:26:01;;;;;;;23.45;17.08;;;;;;;20.55;66.31;94868.34;5148630;27;20126;-80
2023/07/03 00:28:27;;;;;;;24.35;18.23;;;;;;;20.61;65.69;94841.94;5141789;27;20063;-80
2023/07/03 00:30:52;;;;;;;30.80;19.00;;;;;;;20.58;65.87;94874.97;5132018;27;20035;-80
2023/07/03 00:33:17;;;;;;;27.35;18.40;;;;;;;20.59;65.96;94877.31;5129879;27;20060;-81
2023/07/03 00:35:43;;;;;;;23.92;18.77;;;;;;;20.26;67.04;94860.59;5126916;27;20067;-80
2023/07/03 00:38:08;;;;;;;26.25;18.42;;;;;;;20.21;66.85;94850.06;5153578;27;20121;-80
2023/07/03 00:40:34;;;;;;;24.52;19.38;;;;;;;20.32;66.83;94870.78;5153889;27;20030;-80
2023/07/03 00:43:00;;;;;;;24.20;18.73;;;;;;;20.55;66.82;94899.88;5153866;27;20030;-80
2023/07/03 00:45:26;;;;;;;28.45;19.77;;;;;;;20.39;66.58;94871.00;5135553;27;20476;-80
2023/07/03 00:47:52;;;;;;;28.73;18.80;;;;;;;20.46;66.76;94883.09;5134702;27;20411;-80
2023/07/03 00:50:18;;;;;;;25.42;20.48;;;;;;;20.16;67.31;94864.53;5153882;27;20031;-80
2023/07/03 00:52:48;;;;;;;24.70;18.23;;;;;;;20.34;66.86;94881.22;5153401;27;20030;-80
2023/07/03 00:55:13;;;;;;;23.97;19.47;;;;;;;20.55;66.60;94894.50;5153698;27;20169;-80
2023/07/03 00:57:40;;;;;;;26.77;18.13;;;;;;;20.47;66.37;94880.06;5134805;27;20375;-80
2023/07/03 01:00:06;;;;;;;23.95;18.48;;;;;;;20.48;66.58;94887.00;5134689;27;20117;-80
2023/07/03 01:02:42;;;;;;;25.15;18.45;;;;;;;20.20;67.40;94878.91;5153629;27;20054;-80
2023/07/03 01:05:22;;;;;;;25.58;18.85;;;;;;;19.97;68.58;94878.63;5153061;27;20034;-80
2023/07/03 01:07:48;;;;;;;25.98;19.52;;;;;;;20.11;68.28;94893.59;5134109;27;20358;-80
2023/07/03 01:10:18;;;;;;;24.10;19.63;;;;;;;20.16;68.19;94907.59;5153218;27;20015;-80
2023/07/03 01:12:49;;;;;;;24.52;19.73;;;;;;;20.16;68.33;94896.06;5134433;27;20576;-80
2023/07/03 01:15:19;;;;;;;28.15;20.65;;;;;;;19.94;68.55;94881.19;5134506;27;20023;-80
2023/07/03 01:17:47;;;;;;;30.77;20.83;;;;;;;20.12;68.41;94889.78;5130516;27;20471;-80
2023/07/03 01:20:16;;;;;;;23.48;20.05;;;;;;;20.29;68.07;94903.75;5132123;27;20039;-80
2023/07/03 01:23:02;;;;;;;25.88;19.73;;;;;;;20.23;67.86;94888.19;5110776;27;20084;-80
2023/07/03 01:25:30;;;;;;;25.80;20.65;;;;;;;20.02;68.62;94883.75;5122852;27;20473;-80
2023/07/03 01:27:58;;;;;;;26.73;20.77;;;;;;;19.91;69.11;94887.25;5132039;27;20035;-80
2023/07/03 01:30:26;;;;;;;24.48;20.73;;;;;;;19.68;68.73;94835.06;5131924;27;20072;-80
2023/07/03 01:32:54;;;;;;;23.08;19.98;;;;;;;19.94;69.10;94889.25;5132173;27;20417;-80
2023/07/03 01:35:22;;;;;;;24.00;20.45;;;;;;;19.56;69.41;94849.28;5130751;27;20358;-80
2023/07/03 01:37:50;;;;;;;26.98;21.33;;;;;;;19.74;69.88;94877.53;5130758;27;20023;-80
2023/07/03 01:40:20;;;;;;;26.67;21.38;;;;;;;19.97;69.75;94902.06;5129781;27;20026;-80
2023/07/03 01:42:47;;;;;;;26.27;21.65;;;;;;;19.74;69.98;94885.59;5130368;27;20627;-80
2023/07/03 01:45:13;;;;;;;28.33;20.92;;;;;;;19.81;69.98;94883.13;5131845;27;20059;-80
2023/07/03 01:47:38;;;;;;;27.85;21.45;;;;;;;19.80;70.17;94886.16;5130677;27;20023;-80
2023/07/03 01:50:14;;;;;;;30.33;22.23;;;;;;;19.90;69.65;94883.00;5131749;27;20050;-80
2023/07/03 01:52:44;;;;;;;24.95;20.67;;;;;;;19.99;69.77;94905.94;5131686;27;20027;-80
2023/07/03 01:55:19;;;;;;;25.48;20.63;;;;;;;20.10;69.51;94910.88;5130175;27;20482;-80
2023/07/03 01:57:52;;;;;;;28.80;22.75;;;;;;;20.12;69.15;94909.44;5131246;27;20359;-80
2023/07/03 02:00:27;;;;;;;28.27;21.30;;;;;;;19.93;69.77;94893.84;5132880;27;20030;-78
2023/07/03 02:02:56;;;;;;;27.42;21.60;;;;;;;20.20;69.04;94888.88;5132557;27;20076;-78
2023/07/03 02:05:26;;;;;;;25.40;21.77;;;;;;;20.24;68.75;94887.84;5131449;27;20023;-78
2023/07/03 02:07:56;;;;;;;31.55;22.42;;;;;;;20.41;68.30;94909.16;5132608;27;20110;-78
2023/07/03 02:10:22;;;;;;;26.33;21.35;;;;;;;20.42;68.10;94899.94;5131065;27;20042;-78
2023/07/03 02:12:47;;;;;;;29.00;22.25;;;;;;;19.95;68.34;94829.72;5131468;27;20035;-78
2023/07/03 02:15:14;;;;;;;25.90;21.35;;;;;;;20.04;68.03;94845.72;5132660;27;20546;-78
2023/07/03 02:17:40;;;;;;;26.85;22.02;;;;;;;20.01;68.62;94867.94;5145683;27;20050;-79
2023/07/03 02:20:07;;;;;;;28.25;21.40;;;;;;;20.21;69.35;94912.00;5153113;27;20406;-79
2023/07/03 02:22:33;;;;;;;29.65;22.95;;;;;;;19.83;69.63;94877.41;5152827;27;20110;-79
2023/07/03 02:24:58;;;;;;;28.75;22.33;;;;;;;20.14;69.74;94922.56;5126159;27;20363;-79
2023/07/03 02:27:24;;;;;;;27.35;22.08;;;;;;;20.00;70.17;94929.06;5113756;27;20037;-79
2023/07/03 02:29:49;;;;;;;25.83;21.08;;;;;;;19.94;70.25;94925.03;5133925;27;20038;-78
2023/07/03 02:32:15;;;;;;;25.80;21.17;;;;;;;19.73;70.25;94875.16;5152149;27;20079;-78
2023/07/03 02:34:40;;;;;;;25.63;21.50;;;;;;;19.78;70.52;94899.94;5134114;27;20570;-78
2023/07/03 02:37:09;;;;;;;28.55;22.30;;;;;;;19.78;71.32;94921.47;5133782;27;20103;-78
2023/07/03 02:39:35;;;;;;;27.85;21.85;;;;;;;19.50;72.47;94925.94;5133695;27;20410;-79
2023/07/03 02:42:00;;;;;;;33.22;23.83;;;;;;;19.67;72.31;94939.19;5143513;27;20083;-79
2023/07/03 02:44:26;;;;;;;29.25;22.83;;;;;;;19.68;72.21;94938.06;5106198;27;20089;-79
2023/07/03 02:46:51;;;;;;;26.35;22.15;;;;;;;19.62;71.68;94921.34;5131772;27;20023;-78
2023/07/03 02:49:17;;;;;;;32.80;22.42;;;;;;;19.65;71.88;94925.28;5141228;27;20031;-78
2023/07/03 02:51:42;;;;;;;28.88;22.33;;;;;;;19.78;71.69;94942.19;5120447;27;20034;-79
2023/07/03 02:54:09;;;;;;;30.23;22.40;;;;;;;19.70;72.03;94927.75;5131481;27;20648;-78
2023/07/03 02:56:35;;;;;;;28.65;22.20;;;;;;;19.86;71.69;94944.00;5129711;27;20050;-78
2023/07/03 02:59:01;;;;;;;28.45;22.00;;;;;;;19.29;71.60;94858.81;5129544;27;20496;-79
2023/07/03 03:01:26;;;;;;;28.02;21.88;;;;;;;19.81;71.87;94947.72;5133425;27;20030;-79
2023/07/03 03:03:51;;;;;;;28.85;21.52;;;;;;;19.46;72.64;94919.63;5132992;27;20052;-79
2023/07/03 03:06:17;;;;;;;28.25;20.95;;;;;;;19.75;72.17;94953.66;5133177;27;20082;-79
2023/07/03 03:08:42;;;;;;;29.45;22.08;;;;;;;19.59;72.42;94940.88;5131849;27;20034;-79
2023/07/03 03:11:10;;;;;;;32.53;21.77;;;;;;;19.58;72.51;94922.38;5130957;28;20389;-79
2023/07/03 03:13:35;;;;;;;26.27;20.98;;;;;;;19.64;72.12;94929.09;5129439;28;20498;-79
2023/07/03 03:16:00;;;;;;;28.00;22.45;;;;;;;19.62;72.28;94944.78;5129416;28;20172;-79
2023/07/03 03:18:26;;;;;;;28.52;23.33;;;;;;;19.79;72.38;94949.16;5151268;27;20142;-78
2023/07/03 03:20:51;;;;;;;26.40;21.70;;;;;;;19.92;72.07;94939.94;5151439;27;20039;-79
2023/07/03 03:23:17;;;;;;;26.00;20.70;;;;;;;20.03;71.60;94958.00;5132518;27;20035;-79
2023/07/03 03:25:42;;;;;;;31.52;22.13;;;;;;;19.98;71.73;94942.09;5145473;27;20019;-79
2023/07/03 03:28:08;;;;;;;27.80;22.05;;;;;;;20.06;71.46;94951.16;5129468;27;20046;-78
2023/07/03 03:30:33;;;;;;;28.88;21.85;;;;;;;19.88;71.74;94942.53;5132798;27;20450;-79
2023/07/03 03:32:59;;;;;;;29.50;22.30;;;;;;;19.93;71.58;94926.16;5130622;27;20079;-79
2023/07/03 03:35:24;;;;;;;26.20;20.77;;;;;;;19.89;71.63;94919.91;5151656;27;20408;-78
2023/07/03 03:37:50;;;;;;;32.40;21.70;;;;;;;20.21;71.05;94947.78;5132539;27;20135;-79
2023/07/03 03:40:15;;;;;;;30.88;22.30;;;;;;;20.11;71.48;94960.91;5129941;27;20031;-79
2023/07/03 03:42:41;;;;;;;33.03;23.20;;;;;;;20.31;70.37;94963.44;5132438;27;20091;-79
2023/07/03 03:45:07;;;;;;;35.08;22.38;;;;;;;20.17;69.44;94927.25;5150993;27;20037;-79
2023/07/03 03:47:32;;;;;;;27.33;20.80;;;;;;;20.50;69.33;94954.81;5151554;27;20502;-79
2023/07/03 03:49:58;;;;;;;35.03;22.88;;;;;;;20.40;68.76;94914.88;5151488;27;20027;-79
2023/07/03 03:52:23;;;;;;;32.60;22.92;;;;;;;20.32;69.05;94921.94;5132628;27;20034;-79
2023/07/03 03:54:49;;;;;;;27.05;21.40;;;;;;;20.51;69.76;94956.38;5151036;27;20465;-79
2023/07/03 03:57:15;;;;;;;29.98;21.55;;;;;;;20.29;71.08;94949.53;5132750;27;20027;-79
2023/07/03 03:59:41;;;;;;;27.98;21.58;;;;;;;19.79;72.53;94939.19;5151864;27;20030;-79
2023/07/03 04:02:06;;;;;;;29.50;23.58;;;;;;;19.92;73.19;94966.84;5130507;27;20107;-79
2023/07/03 04:04:32;;;;;;;32.25;22.23;;;;;;;19.90;73.80;94983.38;5127159;27;20506;-79
2023/07/03 04:06:58;;;;;;;31.05;23.35;;;;;;;19.82;73.71;94962.72;5151286;27;20037;-79
2023/07/03 04:09:23;;;;;;;29.73;23.13;;;;;;;19.84;73.63;94973.91;5132832;27;20364;-79
2023/07/03 04:11:49;;;;;;;32.15;23.40;;;;;;;19.69;74.60;94958.44;5109318;27;20031;-79
2023/07/03 04:14:16;;;;;;;32.38;24.13;;;;;;;19.78;74.75;94991.41;5123211;27;20099;-79
2023/07/03 04:16:42;;;;;;;38.03;24.15;;;;;;;19.50;75.17;94950.94;5124612;27;20127;-78
2023/07/03 04:19:08;;;;;;;32.17;23.77;;;;;;;19.86;74.92;94998.59;5121624;27;20111;-79
2023/07/03 04:21:33;;;;;;;30.80;23.85;;;;;;;19.25;75.57;94931.28;5134150;27;20068;-78
2023/07/03 04:23:59;;;;;;;34.15;24.90;;;;;;;19.56;76.06;94986.47;5134287;27;20493;-79
2023/07/03 04:26:24;;;;;;;32.28;24.38;;;;;;;19.48;75.71;94960.47;5133626;27;20027;-79
2023/07/03 04:28:50;;;;;;;32.85;24.98;;;;;;;19.77;75.94;95000.59;5117909;27;20188;-78
2023/07/03 04:31:15;;;;;;;35.90;24.70;;;;;;;19.73;75.26;94977.41;5131394;27;20395;-79
2023/07/03 04:33:43;;;;;;;32.78;25.15;;;;;;;19.87;75.64;95013.63;5132712;27;20054;-79
2023/07/03 04:36:11;;;;;;;32.83;25.42;;;;;;;19.47;75.84;94967.75;5124982;27;20485;-79
2023/07/03 04:38:38;;;;;;;34.45;24.85;;;;;;;19.51;76.40;94984.78;5114953;27;20125;-78
2023/07/03 04:41:04;;;;;;;38.80;26.40;;;;;;;19.73;76.23;95001.63;5115019;27;20160;-78
2023/07/03 04:43:29;;;;;;;37.30;24.70;;;;;;;19.91;75.67;95008.38;5133266;27;20110;-79
2023/07/03 04:45:56;;;;;;;33.35;24.75;;;;;;;19.74;76.02;95006.69;5132685;27;20042;-79
2023/07/03 04:48:21;;;;;;;33.33;23.67;;;;;;;19.76;75.99;94993.66;5133002;27;20039;-79
2023/07/03 04:50:48;;;;;;;32.92;24.63;;;;;;;19.78;75.90;95001.38;5122739;27;20035;-79
2023/07/03 04:53:15;;;;;;;35.35;24.52;;;;;;;19.81;76.11;95014.97;5114430;27;20046;-79
2023/07/03 04:55:41;;;;;;;31.50;24.08;;;;;;;19.45;75.49;94961.91;5125526;27;20030;-79
2023/07/03 04:58:07;;;;;;;31.10;23.35;;;;;;;19.82;76.13;94994.22;5123010;27;20031;-79
2023/07/03 05:00:33;;;;;;;32.53;23.65;;;;;;;19.94;75.33;95002.28;5132996;27;20027;-79
2023/07/03 05:03:02;;;;;;;32.92;24.67;;;;;;;20.11;74.87;95020.91;5126318;27;20023;-78
2023/07/03 05:05:27;;;;;;;33.28;22.70;;;;;;;19.93;74.96;95003.41;5123656;27;20020;-79
2023/07/03 05:07:53;;;;;;;30.02;22.73;;;;;;;19.80;74.49;94962.28;5121721;27;20031;-79
2023/07/03 05:10:22;;;;;;;31.88;23.80;;;;;;;19.88;74.92;95019.78;5128947;27;20031;-79
2023/07/03 05:12:49;;;;;;;31.77;22.90;;;;;;;19.95;75.15;95034.25;5127651;27;20031;-79
2023/07/03 05:15:16;;;;;;;30.40;23.55;;;;;;;19.56;76.08;94998.00;5126916;27;20108;-78
2023/07/03 05:17:42;;;;;;;30.20;22.70;;;;;;;19.80;75.51;95020.69;5121322;27;20130;-79
2023/07/03 05:20:13;;;;;;;26.90;21.75;;;;;;;19.78;75.07;95007.56;5109514;27;20125;-78
2023/07/03 05:22:41;;;;;;;31.38;23.40;;;;;;;19.82;74.95;94991.53;5100177;27;20054;-79
2023/07/03 05:25:09;;;;;;;33.13;25.20;;;;;;;19.93;74.93;95020.34;5115145;27;20049;-79
2023/07/03 05:27:35;;;;;;;34.67;23.60;;;;;;;19.90;75.03;95042.56;5114784;27;20038;-79
2023/07/03 05:30:01;;;;;;;28.85;22.45;;;;;;;19.96;75.13;95037.75;5103539;27;20031;-79
2023/07/03 05:32:29;;;;;;;28.23;22.90;;;;;;;19.76;75.00;94998.28;5099363;27;20056;-79
2023/07/03 05:34:54;;;;;;;31.45;23.77;;;;;;;19.67;75.31;94986.81;5100759;27;20027;-79
2023/07/03 05:37:20;;;;;;;29.45;21.60;;;;;;;19.92;74.86;95020.69;5119874;27;20034;-79
2023/07/03 05:39:48;;;;;;;34.92;22.23;;;;;;;20.20;74.49;95043.13;5102375;27;20510;-79
2023/07/03 05:42:14;;;;;;;31.50;23.08;;;;;;;20.14;75.09;95041.78;5089053;27;20501;-80
2023/07/03 05:44:40;;;;;;;32.00;22.88;;;;;;;20.15;74.67;95037.16;5098953;27;20042;-78
2023/07/03 05:47:06;;;;;;;32.03;23.60;;;;;;;20.10;74.92;95021.25;5121581;27;20130;-79
2023/07/03 05:49:31;;;;;;;28.70;21.88;;;;;;;20.16;74.61;95009.13;5103354;27;20023;-79
2023/07/03 05:51:57;;;;;;;28.08;22.50;;;;;;;20.33;74.53;95050.09;5119102;27;20020;-79
2023/07/03 05:54:22;;;;;;;30.77;21.85;;;;;;;20.06;74.38;94990.75;5100154;27;20038;-80
2023/07/03 05:57:04;;;;;;;29.35;21.95;;;;;;;20.34;73.86;95024.75;5112001;27;20037;-79
2023/07/03 05:59:31;;;;;;;34.63;22.33;;;;;;;20.11;73.46;94993.22;5122118;27;20055;-79
2023/07/03 06:01:57;;;;;;;34.47;22.38;;;;;;;20.48;73.16;95051.31;5102437;27;20118;-79
2023/07/03 06:04:23;;;;;;;38.00;21.70;;;;;;;20.32;72.80;95018.09;5117872;27;20031;-79
2023/07/03 06:06:53;;;;;;;30.15;21.58;;;;;;;20.62;72.64;95049.06;5121495;27;20450;-79
2023/07/03 06:09:18;;;;;;;38.30;20.60;;;;;;;20.64;72.94;95033.34;5121634;27;20565;-79
2023/07/03 06:11:45;;;;;;;33.35;22.15;;;;;;;20.58;72.93;94993.50;5123987;27;20114;-79
2023/07/03 06:14:16;;;;;;;25.73;20.73;;;;;;;20.92;72.21;95044.16;5117794;27;20038;-79
2023/07/03 06:16:42;;;;;;;;;;;;;;;20.94;71.82;95041.91;5104569;27;20054;-79
2023/07/03 06:19:08;;;;;;;30.83;21.30;;;;;;;20.71;71.49;94986.94;5117297;27;19972;-80
2023/07/03 06:21:33;;;;;;;32.13;21.15;;;;;;;20.90;71.91;95016.00;5101185;27;20483;-79
2023/07/03 06:23:58;;;;;;;34.05;20.60;;;;;;;20.93;71.24;95017.97;5092117;27;20034;-80
2023/07/03 06:26:24;;;;;;;34.03;21.52;;;;;;;20.51;71.10;94959.06;5113734;27;20088;-80
2023/07/03 06:28:49;;;;;;;25.65;20.17;;;;;;;20.97;70.80;95024.28;5111808;27;20039;-79
2023/07/03 06:31:15;;;;;;;32.80;20.63;;;;;;;20.99;70.88;95033.56;5106627;27;20110;-80
2023/07/03 06:33:41;;;;;;;31.02;21.15;;;;;;;21.13;71.01;95028.56;5102657;27;20035;-80
2023/07/03 06:36:06;;;;;;;27.52;20.42;;;;;;;21.17;71.14;95039.50;5104658;27;20026;-80
2023/07/03 06:38:32;;;;;;;26.25;21.02;;;;;;;20.82;70.69;94996.13;5103833;27;20034;-79
2023/07/03 06:40:58;;;;;;;30.92;22.70;;;;;;;21.45;71.01;95058.34;5119154;27;20422;-80
2023/07/03 06:43:24;;;;;;;27.73;20.63;;;;;;;21.31;70.16;95022.91;5116377;27;20076;-79
2023/07/03 06:45:49;;;;;;;27.58;21.13;;;;;;;21.60;69.93;95048.72;5098566;27;20039;-80
2023/07/03 06:48:15;;;;;;;25.23;19.33;;;;;;;21.44;68.90;95027.88;5093012;27;20658;-79
2023/07/03 06:50:40;;;;;;;26.73;18.65;;;;;;;20.88;68.60;94986.69;5092190;27;20407;-80
2023/07/03 06:53:05;;;;;;;30.65;21.25;;;;;;;21.14;69.88;95046.31;5107190;27;20098;-80
2023/07/03 06:55:31;;;;;;;27.65;18.48;;;;;;;21.18;69.76;95044.53;5113963;27;20058;-80
2023/07/03 06:58:00;;;;;;;25.35;19.25;;;;;;;21.00;69.29;95008.19;5103867;27;20389;-79
2023/07/03 07:00:26;;;;;;;27.83;19.02;;;;;;;21.34;69.66;95058.09;5100455;27;20035;-80
2023/07/03 07:02:52;;;;;;;29.75;18.85;;;;;;;21.37;68.87;95048.50;5118846;27;20463;-80
2023/07/03 07:05:19;;;;;;;23.10;19.33;;;;;;;21.24;68.73;95028.91;5115312;27;20039;-81
2023/07/03 07:07:45;;;;;;;23.27;18.42;;;;;;;21.21;68.96;95016.09;5096941;28;20085;-80
2023/07/03 07:10:10;;;;;;;24.92;18.50;;;;;;;21.32;69.28;95041.44;5107294;27;20476;-80
2023/07/03 07:12:36;;;;;;;33.53;19.02;;;;;;;21.28;68.98;95010.91;5111542;27;20143;-80
2023/07/03 07:15:01;;;;;;;24.42;18.23;;;;;;;21.66;68.45;95060.84;5095991;28;20035;-80
2023/07/03 07:17:27;;;;;;;27.77;18.42;;;;;;;21.65;67.68;95040.38;5093788;28;20054;-80
2023/07/03 07:19:52;;;;;;;25.48;17.77;;;;;;;21.69;67.84;95014.25;5095488;28;20065;-80
2023/07/03 07:22:18;;;;;;;25.55;19.10;;;;;;;21.87;67.53;95026.28;5109106;27;20039;-80
2023/07/03 07:24:43;;;;;;;22.75;19.50;;;;;;;22.14;67.81;95048.94;5110787;27;20036;-81
2023/07/03 07:27:09;;;;;;;23.08;18.17;;;;;;;22.09;67.42;95046.53;5099617;28;20035;-80
2023/07/03 07:29:34;;;;;;;27.13;16.10;;;;;;;21.94;65.63;95015.66;5120261;27;20039;-80
2023/07/03 07:32:00;;;;;;;22.15;15.27;;;;;;;22.22;65.57;95051.47;5098225;27;20053;-80
2023/07/03 07:34:26;;;;;;;20.42;14.95;;;;;;;22.15;64.50;95054.00;5105518;28;20065;-81
2023/07/03 07:36:51;;;;;;;23.58;15.07;;;;;;;21.75;65.53;95019.03;5115261;27;20104;-80
2023/07/03 07:39:21;;;;;;;20.10;14.93;;;;;;;22.26;64.61;95057.75;5114648;27;20489;-80
2023/07/03 07:41:48;;;;;;;20.80;14.82;;;;;;;22.27;65.10;95050.44;5116490;27;20031;-80
2023/07/03 07:44:13;;;;;;;21.20;16.92;;;;;;;21.72;65.04;94946.88;5120187;27;20035;-80
2023/07/03 07:46:39;;;;;;;26.10;16.25;;;;;;;22.26;65.37;95046.94;5101295;27;20035;-80
2023/07/03 07:49:04;;;;;;;22.88;15.73;;;;;;;22.43;65.47;95061.97;5100253;27;20038;-80
2023/07/03 07:51:30;;;;;;;25.02;14.93;;;;;;;22.47;64.47;95048.56;5097496;27;20045;-80
2023/07/03 07:53:57;;;;;;;27.73;16.05;;;;;;;22.51;64.55;95044.00;5102431;27;20039;-80
2023/07/03 07:56:23;;;;;;;20.77;15.70;;;;;;;22.67;63.34;95052.88;5115746;27;20042;-80
2023/07/03 07:58:49;;;;;;;24.60;15.60;;;;;;;22.75;63.98;95060.03;5113445;27;20149;-80
2023/07/03 08:01:15;;;;;;;26.38;14.95;;;;;;;22.84;63.49;95052.50;5102584;27;20164;-79
2023/07/03 08:03:43;;;;;;;20.52;15.52;;;;;;;22.68;62.34;95033.59;5119400;27;20065;-79
2023/07/03 08:06:09;;;;;;;21.17;14.20;;;;;;;23.14;62.06;95074.38;5123335;27;20134;-80
2023/07/03 08:08:35;;;;;;;17.50;13.98;;;;;;;23.05;61.40;95054.88;5107975;27;20043;-80
2023/07/03 08:11:02;;;;;;;22.15;13.32;;;;;;;22.94;60.80;95030.31;5085486;27;20080;-79
2023/07/03 08:13:30;;;;;;;22.30;13.25;;;;;;;23.28;59.99;95049.53;5123053;27;20031;-78
2023/07/03 08:15:56;;;;;;;19.08;13.82;;;;;;;23.51;59.84;95079.38;5105484;27;20027;-81
2023/07/03 08:18:22;;;;;;;22.65;12.88;;;;;;;23.35;59.32;95069.38;5115146;27;20066;-79
2023/07/03 08:20:49;;;;;;;17.33;12.20;;;;;;;23.50;59.16;95070.47;5109654;27;20043;-79
2023/07/03 08:23:14;;;;;;;16.50;12.30;;;;;;;23.53;58.00;95077.09;5107805;27;20110;-79
2023/07/03 08:25:42;;;;;;;16.65;12.27;;;;;;;23.41;57.76;95046.34;5110352;27;20111;-79
2023/07/03 08:28:09;;;;;;;17.20;13.10;;;;;;;23.44;58.54;95045.59;5122866;27;20031;-79
2023/07/03 08:30:35;;;;;;;22.00;13.13;;;;;;;23.59;58.80;95041.25;5123631;27;20150;-79
2023/07/03 08:33:01;;;;;;;15.35;12.05;;;;;;;23.77;57.65;95061.31;5107928;27;20452;-79
2023/07/03 08:35:26;;;;;;;18.45;13.20;;;;;;;23.72;57.29;95048.09;5124591;27;20100;-79
2023/07/03 08:37:52;;;;;;;22.98;12.82;;;;;;;23.78;57.22;95059.41;5119202;27;20035;-79
2023/07/03 08:40:22;;;;;;;16.67;12.18;;;;;;;23.77;57.45;95079.50;5103051;27;20039;-79
2023/07/03 08:42:55;;;;;;;22.45;12.07;;;;;;;23.70;56.74;95061.19;5110485;27;20106;-79
2023/07/03 08:45:49;;;;;;;17.88;11.75;;;;;;;23.84;55.54;95075.00;5090920;27;20184;-79
2023/07/03 08:48:26;;;;;;;18.67;11.13;;;;;;;23.74;54.18;95042.28;5111388;27;20728;-79
2023/07/03 08:50:57;;;;;;;16.05;10.07;;;;;;;24.11;54.22;95067.69;5102298;27;20232;-79
2023/07/03 08:53:43;;;;;;;15.93;10.98;;;;;;;24.23;54.01;95054.00;5112988;27;20471;-79
2023/07/03 08:56:14;;;;;;;16.00;11.80;;;;;;;24.15;54.13;95054.22;5107295;27;20573;-79
2023/07/03 08:58:40;;;;;;;17.52;11.38;;;;;;;24.14;53.81;95052.66;5090776;27;20050;-80
2023/07/03 09:01:23;;;;;;;17.20;11.02;;;;;;;24.08;52.82;95045.97;5104753;27;20035;-80
2023/07/03 09:03:49;;;;;;;15.77;10.82;;;;;;;24.28;54.28;95077.28;5103979;27;20086;-80
2023/07/03 09:06:50;;;;;;;13.43;10.25;;;;;;;24.36;53.18;95038.31;5096023;27;21593;-80
2023/07/03 09:09:28;;;;;;;18.40;10.35;;;;;;;24.78;52.95;95054.44;5094338;27;20035;-80
2023/07/03 09:12:02;;;;;;;15.38;10.50;;;;;;;25.02;52.72;95074.94;5082284;27;20057;-79
2023/07/03 09:14:32;;;;;;;14.30;10.32;;;;;;;24.87;52.36;95076.63;5094012;27;20027;-80
2023/07/03 09:16:59;;;;;;;16.70;10.25;;;;;;;24.60;52.89;95070.44;5095526;27;20141;-80
2023/07/03 09:19:27;;;;;;;22.55;10.75;;;;;;;24.51;52.42;95055.56;5113333;27;20538;-80
2023/07/03 09:21:57;;;;;;;14.82;10.68;;;;;;;24.58;52.11;95051.03;5103606;27;20487;-80
2023/07/03 09:24:33;;;;;;;23.33;11.40;;;;;;;24.59;52.89;95081.66;5112984;27;21158;-79
2023/07/03 09:27:15;;;;;;;13.73;11.45;;;;;;;24.77;52.32;95081.91;5114942;27;20023;-80
2023/07/03 09:29:42;;;;;;;13.00;10.35;;;;;;;24.71;51.95;95070.59;5118408;27;20031;-79
2023/07/03 09:32:12;;;;;;;15.93;10.60;;;;;;;24.86;52.58;95068.88;5095909;27;20027;-79
2023/07/03 09:35:08;;;;;;;14.98;11.32;;;;;;;25.11;51.62;95069.22;5083799;27;20023;-79
2023/07/03 09:37:37;;;;;;;16.85;11.10;;;;;;;25.30;52.07;95053.56;5092592;27;20046;-79
2023/07/03 09:40:08;;;;;;;17.60;11.27;;;;;;;25.07;50.45;95035.84;5114033;27;20122;-79
2023/07/03 09:42:34;;;;;;;;;;;;;;;25.26;50.69;95070.94;5118223;27;20446;-79
2023/07/03 09:44:59;;;;;;;14.65;10.30;;;;;;;24.80;50.78;95043.19;5120780;27;19923;-79
2023/07/03 09:47:28;;;;;;;15.13;10.68;;;;;;;25.08;52.02;95069.97;5117929;27;20458;-79
2023/07/03 09:50:01;;;;;;;17.50;10.48;;;;;;;25.08;51.66;95068.03;5110785;27;20035;-79
2023/07/03 09:52:26;;;;;;;13.73;10.60;;;;;;;25.58;50.55;95072.13;5116071;27;20042;-78
2023/07/03 09:54:53;;;;;;;12.57;9.90;;;;;;;25.97;49.30;95044.59;5120785;27;20031;-81
2023/07/03 09:57:25;;;;;;;17.98;10.57;;;;;;;26.83;46.69;95052.25;5101455;27;20046;-79
2023/07/03 09:59:53;;;;;;;15.00;9.73;;;;;;;27.81;43.76;95058.53;5115508;27;20033;-79
2023/07/03 10:02:22;;;;;;;15.45;9.55;;;;;;;28.97;42.45;95037.91;5120251;27;20512;-79
2023/07/03 10:04:47;;;;;;;17.38;8.43;;;;;;;30.04;40.36;95040.94;5118679;27;20035;-79
2023/07/03 10:07:16;;;;;;;12.48;8.57;;;;;;;30.23;38.33;95054.06;5103451;27;20419;-79
2023/07/03 10:09:43;;;;;;;12.00;7.82;;;;;;;29.16;39.88;95059.28;5101928;27;20413;-79
2023/07/03 10:12:33;;;;;;;15.93;9.52;;;;;;;28.96;40.98;95061.69;5106296;27;20030;-78
2023/07/03 10:15:10;;;;;;;15.17;9.27;;;;;;;28.82;41.54;95056.25;5116364;27;20505;-78
2023/07/03 10:17:42;;;;;;;18.42;9.68;;;;;;;28.91;40.40;95039.47;5112946;27;20048;-78
2023/07/03 10:20:16;;;;;;;12.38;9.10;;;;;;;29.25;40.41;95040.53;5112228;27;20035;-78
2023/07/03 10:22:43;;;;;;;11.27;8.05;;;;;;;29.86;39.45;95049.22;5096338;27;20031;-78
2023/07/03 10:25:18;;;;;;;10.13;8.35;;;;;;;30.57;37.88;95033.09;5108194;27;20039;-77
2023/07/03 10:27:45;;;;;;;9.52;7.85;;;;;;;31.11;36.71;94991.50;5120436;27;20117;-78
2023/07/03 10:30:15;;;;;;;11.13;8.15;;;;;;;31.30;35.84;94927.84;5099697;27;20585;-79
2023/07/03 10:32:45;;;;;;;13.73;7.88;;;;;;;32.19;34.14;94990.41;5109893;27;20035;-79
2023/07/03 10:35:29;;;;;;;15.35;8.43;;;;;;;32.35;34.15;95047.38;5144978;27;20770;-79
2023/07/03 10:38:08;;;;;;;11.50;7.40;;;;;;;31.52;35.15;95016.00;5122894;27;20031;-79
2023/07/03 10:40:47;;;;;;;11.98;6.95;;;;;;;30.36;37.14;95036.00;5117252;27;20059;-80
2023/07/03 10:43:14;;;;;;;12.57;7.70;;;;;;;30.22;37.03;95017.72;5122300;27;20026;-78
2023/07/03 10:45:41;;;;;;;12.73;7.65;;;;;;;29.13;39.57;95002.75;5111731;27;20127;-78
2023/07/03 10:48:20;;;;;;;12.27;8.45;;;;;;;29.30;39.02;95018.25;5111865;27;20038;-78
2023/07/03 10:51:13;;;;;;;17.20;7.63;;;;;;;29.62;39.22;95047.41;5112995;27;20122;-78
2023/07/03 10:53:55;;;;;;;11.73;8.68;;;;;;;29.55;39.49;95013.47;5118893;27;20035;-78
2023/07/03 10:56:55;;;;;;;11.57;7.63;;;;;;;29.70;40.87;95043.44;5114021;27;20109;-78
2023/07/03 10:59:34;;;;;;;11.48;7.70;;;;;;;29.66;40.68;95045.44;5114000;27;20523;-77
2023/07/03 11:02:15;;;;;;;10.05;7.18;;;;;;;29.56;39.16;95036.13;5112099;28;20031;-79
2023/07/03 11:05:02;;;;;;;12.75;7.25;;;;;;;29.53;39.15;95045.88;5113943;27;20034;-78
2023/07/03 11:07:47;;;;;;;11.80;7.43;;;;;;;29.51;39.17;95028.34;5119062;27;20034;-78
2023/07/03 11:10:17;;;;;;;11.35;8.15;;;;;;;29.34;40.05;95042.84;5120380;27;20042;-79
2023/07/03 11:12:48;;;;;;;10.98;7.43;;;;;;;28.49;42.93;95045.75;5120470;28;20035;-78
2023/07/03 11:15:14;;;;;;;10.82;7.20;;;;;;;28.54;42.59;95042.59;5126383;28;20047;-78
2023/07/03 11:18:16;;;;;;;15.48;8.02;;;;;;;27.81;43.44;95013.00;5141922;27;20058;-77
2023/07/03 11:20:51;;;;;;;13.52;7.90;;;;;;;27.79;44.25;95020.75;5123668;27;20094;-78
2023/07/03 11:23:38;;;;;;;14.18;8.10;;;;;;;27.49;45.27;94995.75;5125161;27;20038;-78
2023/07/03 11:26:12;;;;;;;11.35;8.10;;;;;;;27.57;44.89;95016.44;5115983;27;20381;-78